Sydney, New South Wales

4:33 AM AEST on September 30, 2016 (GMT +1000)
Kingsford Smith International | | Change Station

Elev 20 ft 33.95 °S, 151.17 °E | Updated 33 minutes ago

Clear
Clear
57 °F
Feels Like 57 °F
N
17
Wind Variable Wind from NNW

Today
High -- | Low -- °F
--% Chance of Precip.
Yesterday
High -- | Low -- °F
Precip. -- in
Pressure 29.44 in
Visibility -9999.0 miles
Clouds
Dew Point 32 °F
Humidity 38%
Rainfall 0.00 in
Snow Depth Not available.
5:33 AM 5:57 PM
Waning Crescent, 1% visible
METAR YSSY 291800Z 34015KT CAVOK 14/00 Q0997 FM1800 MOD TURB BLW 5000FT
Pressure 29.44 in
Visibility -9999.0 miles
Clouds
Dew Point 32 °F
Humidity 38%
Rainfall 0.00 in
Snow Depth Not available.
5:33 AM 5:57 PM
Waning Crescent, 1% visible
METAR YSSY 291800Z 34015KT CAVOK 14/00 Q0997 FM1800 MOD TURB BLW 5000FT

10-Day Weather Forecast

Almanac

Astronomy

Sep. 30, 2016 Rise Set
Actual Time
Civil Twilight
Nautical Twilight
Astronomical Twilight
Moon
Length of Visible Light
Length of Day
Tomorrow will be .
, % of the Moon is Illuminated

Today's Extremes

Country Highs Country Lows

Community

WunderPhotos

Upload Photos

1,942,545 photos uploaded!

WunderBlog® & News

Nearby

Air Quality

  Air Quality AQ Index Pollutant
Not available.

Snow Depth

Station Depth Elevation

Earthquake Activity

City Distance Mag. Time & Date
Minimum magnitude displayed is 2.5.

Coastal Water Temperatures

Place Temperature

Stations

Nearby Weather Stations

Station Location Temp. Windchill Dew Point Humidity Wind Precip. Elev Updated Type